createdAt,value
2023-04-27T00:01:22.276Z,102218.88
2023-04-27T00:03:49.232Z,102216.53
2023-04-27T00:06:16.537Z,102219.63
2023-04-27T00:08:43.469Z,102213.81
2023-04-27T00:11:10.329Z,102210.59
2023-04-27T00:13:37.192Z,102217.28
2023-04-27T00:16:04.221Z,102220.50
2023-04-27T00:18:31.360Z,102217.84
2023-04-27T00:20:58.567Z,102216.69
2023-04-27T00:23:25.464Z,102225.94
2023-04-27T00:25:52.313Z,102224.22
2023-04-27T00:28:19.104Z,102219.63
2023-04-27T00:30:46.748Z,102216.22
2023-04-27T00:33:13.603Z,102232.34
2023-04-27T00:35:40.833Z,102238.88
2023-04-27T00:38:07.646Z,102235.81
2023-04-27T00:40:34.494Z,102233.38
2023-04-27T00:43:01.361Z,102236.22
2023-04-27T00:45:28.880Z,102230.41
2023-04-27T00:47:56.291Z,102235.75
2023-04-27T00:50:30.183Z,102244.09
2023-04-27T00:52:57.630Z,102239.31
2023-04-27T00:55:24.835Z,102230.13
2023-04-27T00:57:51.990Z,102231.00
2023-04-27T01:00:19.138Z,102231.47
2023-04-27T01:02:46.411Z,102229.03
2023-04-27T01:05:13.572Z,102238.56
2023-04-27T01:07:41.114Z,102243.50
2023-04-27T01:10:08.485Z,102237.19
2023-04-27T01:12:35.668Z,102245.63
2023-04-27T01:15:06.610Z,102245.19
2023-04-27T01:17:33.496Z,102242.97
2023-04-27T01:20:00.471Z,102240.81
2023-04-27T01:22:27.410Z,102242.03
2023-04-27T01:24:54.270Z,102247.16
2023-04-27T01:27:21.829Z,102250.19
2023-04-27T01:29:48.753Z,102245.31
2023-04-27T01:32:15.899Z,102239.06
2023-04-27T01:34:42.824Z,102242.72
2023-04-27T01:37:09.728Z,102236.44
2023-04-27T01:39:36.569Z,102236.44
2023-04-27T01:42:04.022Z,102240.50
2023-04-27T01:44:31.184Z,102237.69
2023-04-27T01:46:58.088Z,102230.34
2023-04-27T01:49:25.003Z,102239.75
2023-04-27T01:51:51.951Z,102245.19
2023-04-27T01:54:18.842Z,102241.91
2023-04-27T01:56:45.803Z,102233.06
2023-04-27T01:59:12.944Z,102237.09
2023-04-27T02:01:41.183Z,102244.03
2023-04-27T02:04:08.273Z,102244.47
2023-04-27T02:06:35.791Z,102248.13
2023-04-27T02:09:02.792Z,102240.19
2023-04-27T02:11:29.774Z,102248.28
2023-04-27T02:13:56.647Z,102248.53
2023-04-27T02:16:31.035Z,102244.03
2023-04-27T02:18:59.181Z,102251.69
2023-04-27T02:21:26.032Z,102256.16
2023-04-27T02:23:52.873Z,102251.59
2023-04-27T02:26:20.716Z,102261.47
2023-04-27T02:28:47.866Z,102259.38
2023-04-27T02:31:15.356Z,102265.13
2023-04-27T02:33:42.318Z,102259.34
2023-04-27T02:36:09.501Z,102255.28
2023-04-27T02:38:36.372Z,102253.84
2023-04-27T02:41:04.069Z,102252.34
2023-04-27T02:43:31.020Z,102254.00
2023-04-27T02:46:01.988Z,102255.97
2023-04-27T02:48:28.878Z,102258.75
2023-04-27T02:50:57.038Z,102249.31
2023-04-27T02:53:23.913Z,102251.75
2023-04-27T02:55:51.031Z,102256.16
2023-04-27T02:58:17.869Z,102253.78
2023-04-27T03:00:45.559Z,102254.47
2023-04-27T03:03:12.920Z,102251.50
2023-04-27T03:05:40.091Z,102254.81
2023-04-27T03:08:07.226Z,102250.66
2023-04-27T03:10:34.019Z,102245.94
2023-04-27T03:13:00.854Z,102254.06
2023-04-27T03:15:28.352Z,102258.41
2023-04-27T03:17:55.807Z,102254.63
2023-04-27T03:20:22.740Z,102261.06
2023-04-27T03:22:49.821Z,102257.47
2023-04-27T03:25:19.386Z,102248.34
2023-04-27T03:27:46.274Z,102252.47
2023-04-27T03:30:13.594Z,102244.22
2023-04-27T03:32:40.439Z,102242.03
2023-04-27T03:35:08.238Z,102241.66
2023-04-27T03:37:35.119Z,102233.94
2023-04-27T03:40:02.415Z,102239.25
2023-04-27T03:42:29.813Z,102240.91
2023-04-27T03:44:57.210Z,102244.78
2023-04-27T03:47:24.428Z,102235.03
2023-04-27T03:49:52.718Z,102232.97
2023-04-27T03:52:20.017Z,102241.09
2023-04-27T03:54:47.611Z,102246.38
2023-04-27T03:57:14.662Z,102240.94
2023-04-27T03:59:41.845Z,102228.91
2023-04-27T04:02:09.796Z,102230.78
2023-04-27T04:04:37.415Z,102234.28
2023-04-27T04:07:04.327Z,102238.53
2023-04-27T04:09:31.244Z,102249.69
2023-04-27T04:11:58.232Z,102245.47
2023-04-27T04:14:25.186Z,102241.00
2023-04-27T04:16:52.013Z,102251.16
2023-04-27T04:19:22.107Z,102246.44
2023-04-27T04:21:49.207Z,102241.56
2023-04-27T04:24:16.637Z,102243.16
2023-04-27T04:26:43.874Z,102243.78
2023-04-27T04:29:11.273Z,102246.66
2023-04-27T04:31:38.514Z,102243.38
2023-04-27T04:34:05.478Z,102257.19
2023-04-27T04:36:32.443Z,102249.50
2023-04-27T04:38:59.471Z,102259.88
2023-04-27T04:41:26.910Z,102264.13
2023-04-27T04:43:53.710Z,102268.16
2023-04-27T04:46:20.599Z,102263.91
2023-04-27T04:48:47.560Z,102265.16
2023-04-27T04:51:14.430Z,102270.56
2023-04-27T04:53:41.300Z,102267.34
2023-04-27T04:56:13.092Z,102268.16
2023-04-27T04:58:40.888Z,102267.34
2023-04-27T05:01:07.764Z,102272.59
2023-04-27T05:03:34.864Z,102270.94
2023-04-27T05:06:01.998Z,102277.09
2023-04-27T05:08:29.075Z,102272.44
2023-04-27T05:10:56.000Z,102274.78
2023-04-27T05:13:24.886Z,102279.44
2023-04-27T05:15:52.445Z,102276.34
2023-04-27T05:18:19.677Z,102275.50
2023-04-27T05:20:46.762Z,102270.13
2023-04-27T05:23:13.646Z,102279.03
2023-04-27T05:25:43.398Z,102279.53
2023-04-27T05:28:11.096Z,102285.00
2023-04-27T05:30:38.151Z,102288.19
2023-04-27T05:33:05.673Z,102282.00
2023-04-27T05:35:33.269Z,102280.50
2023-04-27T05:38:00.430Z,102284.69
2023-04-27T05:40:27.769Z,102281.56
2023-04-27T05:42:54.684Z,102285.81
2023-04-27T05:45:21.925Z,102286.91
2023-04-27T05:47:49.067Z,102294.81
2023-04-27T05:50:15.989Z,102304.47
2023-04-27T05:52:42.820Z,102306.06
2023-04-27T05:55:10.034Z,102313.28
2023-04-27T05:57:36.911Z,102318.50
2023-04-27T06:00:09.305Z,102320.47
2023-04-27T06:02:39.393Z,102322.31
2023-04-27T06:05:07.171Z,102320.38
2023-04-27T06:07:34.143Z,102316.41
2023-04-27T06:10:00.992Z,102310.81
2023-04-27T06:12:27.920Z,102313.47
2023-04-27T06:14:54.810Z,102313.97
2023-04-27T06:17:22.160Z,102305.84
2023-04-27T06:19:49.063Z,102309.69
2023-04-27T06:22:16.019Z,102320.72
2023-04-27T06:24:42.835Z,102322.72
2023-04-27T06:27:09.646Z,102309.59
2023-04-27T06:29:36.943Z,102307.16
2023-04-27T06:32:06.931Z,102313.28
2023-04-27T06:34:34.870Z,102310.88
2023-04-27T06:37:02.345Z,102312.13
2023-04-27T06:39:29.266Z,102317.81
2023-04-27T06:41:56.248Z,102309.31
2023-04-27T06:44:25.400Z,102303.75
2023-04-27T06:46:52.268Z,102304.03
2023-04-27T06:49:19.131Z,102306.84
2023-04-27T06:51:46.938Z,102314.16
2023-04-27T06:54:13.883Z,102308.75
2023-04-27T06:56:40.856Z,102316.50
2023-04-27T06:59:08.485Z,102312.00
2023-04-27T07:01:35.496Z,102302.91
2023-04-27T07:04:06.162Z,102299.72
2023-04-27T07:06:33.605Z,102302.16
2023-04-27T07:09:00.533Z,102307.03
2023-04-27T07:11:27.286Z,102298.78
2023-04-27T07:13:54.172Z,102298.13
2023-04-27T07:16:21.153Z,102294.56
2023-04-27T07:18:48.036Z,102288.13
2023-04-27T07:21:14.803Z,102288.16
2023-04-27T07:23:41.948Z,102296.09
2023-04-27T07:26:10.193Z,102297.56
2023-04-27T07:28:37.033Z,102296.09
2023-04-27T07:31:07.561Z,102297.28
2023-04-27T07:33:35.335Z,102292.25
2023-04-27T07:36:02.960Z,102297.59
2023-04-27T07:38:31.423Z,102299.59
2023-04-27T07:41:01.983Z,102298.06
2023-04-27T07:43:29.843Z,102299.50
2023-04-27T07:45:58.602Z,102305.69
2023-04-27T07:48:25.760Z,102300.91
2023-04-27T07:50:52.845Z,102298.00
2023-04-27T07:53:19.642Z,102306.34
2023-04-27T07:55:46.608Z,102294.84
2023-04-27T07:58:13.579Z,102301.91
2023-04-27T08:00:40.380Z,102288.25
2023-04-27T08:03:08.456Z,102294.16
2023-04-27T08:05:36.081Z,102293.38
2023-04-27T08:08:03.038Z,102290.22
2023-04-27T08:10:29.935Z,102294.78
2023-04-27T08:12:56.745Z,102305.00
2023-04-27T08:15:23.580Z,102297.56
2023-04-27T08:17:50.438Z,102302.94
2023-04-27T08:20:17.266Z,102304.00
2023-04-27T08:22:44.211Z,102300.81
2023-04-27T08:25:11.203Z,102295.50
2023-04-27T08:27:41.331Z,102308.69
2023-04-27T08:30:08.761Z,102306.00
2023-04-27T08:32:35.661Z,102304.66
2023-04-27T08:35:03.128Z,102305.19
2023-04-27T08:37:30.089Z,102316.19
2023-04-27T08:39:56.952Z,102308.69
2023-04-27T08:42:23.788Z,102316.44
2023-04-27T08:44:51.125Z,102312.16
2023-04-27T08:47:20.200Z,102317.00
2023-04-27T08:49:52.574Z,102319.38
2023-04-27T08:52:19.448Z,102315.09
2023-04-27T08:54:46.385Z,102314.81
2023-04-27T08:57:15.340Z,102310.41
2023-04-27T08:59:45.539Z,102312.06
2023-04-27T09:02:20.265Z,102313.72
2023-04-27T09:04:47.660Z,102303.50
2023-04-27T09:07:16.647Z,102315.00
2023-04-27T09:09:44.297Z,102324.06
2023-04-27T09:12:15.353Z,102317.06
2023-04-27T09:14:43.058Z,102321.78
2023-04-27T09:17:10.041Z,102319.38
2023-04-27T09:19:36.941Z,102312.78
2023-04-27T09:22:08.281Z,102315.44
2023-04-27T09:24:35.964Z,102307.50
2023-04-27T09:27:03.418Z,102314.31
2023-04-27T09:29:35.217Z,102317.22
2023-04-27T09:32:02.310Z,102308.78
2023-04-27T09:34:39.145Z,102302.38
2023-04-27T09:37:06.785Z,102302.19
2023-04-27T09:39:34.541Z,102303.00
2023-04-27T09:42:01.951Z,102305.06
2023-04-27T09:44:29.853Z,102301.03
2023-04-27T09:46:58.906Z,102301.25
2023-04-27T09:49:28.278Z,102298.16
2023-04-27T09:51:57.160Z,102299.19
2023-04-27T09:54:27.485Z,102296.53
2023-04-27T09:57:00.199Z,102298.69
2023-04-27T09:59:54.840Z,102295.41
2023-04-27T10:02:25.655Z,102303.34
2023-04-27T10:05:22.726Z,102291.94
2023-04-27T10:07:49.860Z,102287.06
2023-04-27T10:10:20.721Z,102295.13
2023-04-27T10:13:26.587Z,102295.47
2023-04-27T10:15:53.983Z,102295.81
2023-04-27T10:18:31.556Z,102298.16
2023-04-27T10:21:10.621Z,102284.19
2023-04-27T10:23:47.215Z,102294.13
2023-04-27T10:26:14.691Z,102299.16
2023-04-27T10:28:41.977Z,102290.25
2023-04-27T10:31:12.322Z,102288.53
2023-04-27T10:33:43.741Z,102282.44
2023-04-27T10:36:15.918Z,102271.59
2023-04-27T10:38:42.713Z,102270.94
2023-04-27T10:41:14.851Z,102266.28
2023-04-27T10:43:41.750Z,102277.53
2023-04-27T10:46:09.995Z,102267.97
2023-04-27T10:48:39.187Z,102268.00
2023-04-27T10:51:07.158Z,102273.41
2023-04-27T10:53:37.827Z,102264.28
2023-04-27T10:56:07.269Z,102270.56
2023-04-27T10:58:48.221Z,102256.38
2023-04-27T11:01:25.967Z,102267.72
2023-04-27T11:03:57.397Z,102263.63
2023-04-27T11:06:24.440Z,102265.66
2023-04-27T11:08:51.662Z,102258.06
2023-04-27T11:11:18.602Z,102248.47
2023-04-27T11:13:48.785Z,102249.47
2023-04-27T11:16:16.119Z,102252.38
2023-04-27T11:18:43.014Z,102253.03
2023-04-27T11:21:14.615Z,102259.25
2023-04-27T11:23:41.867Z,102253.28
2023-04-27T11:26:16.298Z,102252.22
2023-04-27T11:28:43.963Z,102263.53
2023-04-27T11:31:11.811Z,102266.88
2023-04-27T11:33:48.610Z,102266.03
2023-04-27T11:36:19.811Z,102268.91
2023-04-27T11:38:46.969Z,102259.56
2023-04-27T11:41:14.000Z,102264.41
2023-04-27T11:43:49.866Z,102266.50
2023-04-27T11:46:21.505Z,102261.84
2023-04-27T11:48:49.236Z,102259.22
2023-04-27T11:51:16.131Z,102258.00
2023-04-27T11:53:48.429Z,102253.25
2023-04-27T11:56:15.392Z,102258.13
2023-04-27T11:58:44.463Z,102264.69
2023-04-27T12:01:13.326Z,102260.25
2023-04-27T12:03:40.877Z,102261.31
2023-04-27T12:06:27.549Z,102261.41
2023-04-27T12:08:56.837Z,102259.28
2023-04-27T12:11:30.025Z,102259.44
2023-04-27T12:13:57.716Z,102260.88
2023-04-27T12:16:24.637Z,102255.28
2023-04-27T12:18:51.480Z,102252.94
2023-04-27T12:21:18.397Z,102257.44
2023-04-27T12:23:45.300Z,102250.63
2023-04-27T12:26:14.898Z,102252.44
2023-04-27T12:28:42.267Z,102248.88
2023-04-27T12:31:09.148Z,102250.59
2023-04-27T12:33:36.363Z,102257.09
2023-04-27T12:36:03.317Z,102252.22
2023-04-27T12:38:30.151Z,102261.50
2023-04-27T12:40:56.967Z,102251.00
2023-04-27T12:43:23.788Z,102252.13
2023-04-27T12:45:50.661Z,102260.38
2023-04-27T12:48:17.773Z,102256.34
2023-04-27T12:50:44.801Z,102253.91
2023-04-27T12:53:11.872Z,102255.66
2023-04-27T12:55:38.694Z,102248.19
2023-04-27T12:58:05.532Z,102244.25
2023-04-27T13:00:32.523Z,102258.28
2023-04-27T13:02:59.527Z,102249.34
2023-04-27T13:05:26.721Z,102258.13
2023-04-27T13:07:53.558Z,102249.22
2023-04-27T13:10:20.370Z,102257.47
2023-04-27T13:12:47.208Z,102253.81
2023-04-27T13:15:14.113Z,102248.19
2023-04-27T13:17:43.135Z,102247.91
2023-04-27T13:20:11.498Z,102244.66
2023-04-27T13:22:41.109Z,102246.75
2023-04-27T13:25:09.664Z,102235.78
2023-04-27T13:27:36.790Z,102224.47
2023-04-27T13:30:03.835Z,102227.84
2023-04-27T13:32:30.761Z,102234.41
2023-04-27T13:34:57.664Z,102229.66
2023-04-27T13:37:24.493Z,102231.28
2023-04-27T13:39:51.625Z,102224.06
2023-04-27T13:42:18.477Z,102227.03
2023-04-27T13:44:45.373Z,102223.69
2023-04-27T13:47:12.607Z,102214.88
2023-04-27T13:49:39.526Z,102227.69
2023-04-27T13:52:06.442Z,102224.09
2023-04-27T13:54:33.256Z,102220.75
2023-04-27T13:57:00.071Z,102213.50
2023-04-27T13:59:26.942Z,102214.19
2023-04-27T14:01:53.896Z,102218.44
2023-04-27T14:04:20.764Z,102208.25
2023-04-27T14:06:48.266Z,102213.72
2023-04-27T14:09:17.605Z,102208.13
2023-04-27T14:11:55.688Z,102205.09
2023-04-27T14:14:24.060Z,102206.34
2023-04-27T14:16:51.482Z,102206.91
2023-04-27T14:19:20.536Z,102202.28
2023-04-27T14:21:48.167Z,102196.91
2023-04-27T14:24:15.080Z,102203.09
2023-04-27T14:26:45.493Z,102198.72
2023-04-27T14:29:12.281Z,102194.59
2023-04-27T14:31:40.380Z,102199.47
2023-04-27T14:34:08.173Z,102191.50
2023-04-27T14:36:35.356Z,102180.38
2023-04-27T14:39:02.335Z,102181.06
2023-04-27T14:41:29.141Z,102183.81
2023-04-27T14:43:56.207Z,102179.31
2023-04-27T14:46:23.292Z,102176.53
2023-04-27T14:48:50.367Z,102177.13
2023-04-27T14:51:17.314Z,102176.56
2023-04-27T14:53:44.739Z,102179.28
2023-04-27T14:56:12.090Z,102183.00
2023-04-27T14:58:39.201Z,102176.25
2023-04-27T15:01:08.300Z,102186.53
2023-04-27T15:03:35.314Z,102187.22
2023-04-27T15:06:03.073Z,102190.38
2023-04-27T15:08:32.696Z,102184.03
2023-04-27T15:11:01.121Z,102181.69
2023-04-27T15:13:28.154Z,102186.78
2023-04-27T15:15:58.796Z,102191.31
2023-04-27T15:18:26.181Z,102190.09
2023-04-27T15:20:56.920Z,102188.75
2023-04-27T15:23:24.934Z,102189.34
2023-04-27T15:25:54.810Z,102178.22
2023-04-27T15:28:21.883Z,102179.38
2023-04-27T15:30:49.396Z,102181.66
2023-04-27T15:33:17.307Z,102184.34
2023-04-27T15:35:44.249Z,102182.88
2023-04-27T15:38:12.917Z,102183.03
2023-04-27T15:40:40.130Z,102183.34
2023-04-27T15:43:07.059Z,102183.69
2023-04-27T15:45:34.128Z,102182.28
2023-04-27T15:48:01.013Z,102181.19
2023-04-27T15:50:27.894Z,102169.72
2023-04-27T15:52:54.791Z,102169.59
2023-04-27T15:55:22.544Z,102169.09
2023-04-27T15:57:50.408Z,102164.34
2023-04-27T16:00:19.132Z,102162.66
2023-04-27T16:02:46.694Z,102167.75
2023-04-27T16:05:13.852Z,102163.41
2023-04-27T16:07:45.834Z,102159.97
2023-04-27T16:10:13.491Z,102161.69
2023-04-27T16:12:40.738Z,102158.72
2023-04-27T16:15:10.899Z,102156.03
2023-04-27T16:17:38.412Z,102155.47
2023-04-27T16:20:09.602Z,102151.34
2023-04-27T16:22:37.405Z,102141.44
2023-04-27T16:25:10.416Z,102147.47
2023-04-27T16:27:38.600Z,102137.03
2023-04-27T16:30:06.898Z,102130.19
2023-04-27T16:32:35.502Z,102134.97
2023-04-27T16:35:03.180Z,102125.09
2023-04-27T16:37:30.192Z,102125.28
2023-04-27T16:40:01.727Z,102117.84
2023-04-27T16:42:28.819Z,102111.56
2023-04-27T16:44:55.922Z,102111.75
2023-04-27T16:47:22.841Z,102108.69
2023-04-27T16:49:49.986Z,102116.47
2023-04-27T16:52:18.190Z,102118.94
2023-04-27T16:54:45.039Z,102113.38
2023-04-27T16:57:13.391Z,102118.00
2023-04-27T16:59:40.270Z,102113.22
2023-04-27T17:02:23.029Z,102104.09
2023-04-27T17:04:51.454Z,102104.38
2023-04-27T17:07:18.456Z,102106.81
2023-04-27T17:09:45.315Z,102104.94
2023-04-27T17:12:13.552Z,102108.41
2023-04-27T17:14:40.632Z,102110.50
2023-04-27T17:17:07.583Z,102104.63
2023-04-27T17:19:34.487Z,102104.97
2023-04-27T17:22:01.428Z,102107.38
2023-04-27T17:24:28.390Z,102110.28
2023-04-27T17:26:55.296Z,102108.97
2023-04-27T17:29:22.203Z,102096.13
2023-04-27T17:31:50.451Z,102099.34
2023-04-27T17:34:17.556Z,102110.59
2023-04-27T17:36:44.477Z,102106.66
2023-04-27T17:39:13.326Z,102101.84
2023-04-27T17:41:40.954Z,102101.09
2023-04-27T17:44:08.086Z,102108.66
2023-04-27T17:46:35.036Z,102101.13
2023-04-27T17:49:02.257Z,102097.16
2023-04-27T17:51:29.124Z,102091.50
2023-04-27T17:53:55.933Z,102093.16
2023-04-27T17:56:22.981Z,102096.94
2023-04-27T17:58:49.961Z,102094.84
2023-04-27T18:01:16.841Z,102089.50
2023-04-27T18:03:43.825Z,102078.25
2023-04-27T18:06:10.939Z,102086.88
2023-04-27T18:08:37.853Z,102081.00
2023-04-27T18:11:04.733Z,102081.53
2023-04-27T18:13:32.787Z,102080.78
2023-04-27T18:15:59.715Z,102078.16
2023-04-27T18:18:27.057Z,102076.00
2023-04-27T18:20:53.977Z,102077.09
2023-04-27T18:23:21.320Z,102062.66
2023-04-27T18:25:48.194Z,102068.81
2023-04-27T18:28:15.228Z,102069.94
2023-04-27T18:30:42.435Z,102066.72
2023-04-27T18:33:09.573Z,102074.47
2023-04-27T18:35:36.524Z,102073.16
2023-04-27T18:38:03.703Z,102069.66
2023-04-27T18:40:32.925Z,102072.91
2023-04-27T18:42:59.767Z,102075.06
2023-04-27T18:45:26.893Z,102075.63
2023-04-27T18:47:53.841Z,102079.41
2023-04-27T18:50:20.854Z,102073.50
2023-04-27T18:52:47.743Z,102085.59
2023-04-27T18:55:16.320Z,102080.22
2023-04-27T18:57:43.148Z,102073.81
2023-04-27T19:00:11.735Z,102085.06
2023-04-27T19:02:39.151Z,102083.97
2023-04-27T19:05:12.454Z,102081.03
2023-04-27T19:07:40.910Z,102072.75
2023-04-27T19:10:08.447Z,102075.66
2023-04-27T19:12:35.411Z,102069.00
2023-04-27T19:15:02.284Z,102075.41
2023-04-27T19:17:29.245Z,102082.91
2023-04-27T19:19:56.421Z,102083.19
2023-04-27T19:22:23.272Z,102086.13
2023-04-27T19:24:50.130Z,102080.28
2023-04-27T19:27:17.067Z,102091.50
2023-04-27T19:29:52.495Z,102094.44
2023-04-27T19:32:20.186Z,102085.09
2023-04-27T19:34:47.559Z,102093.63
2023-04-27T19:37:14.502Z,102082.66
2023-04-27T19:39:41.370Z,102084.00
2023-04-27T19:42:08.291Z,102079.44
2023-04-27T19:44:35.179Z,102087.47
2023-04-27T19:47:04.258Z,102085.06
2023-04-27T19:49:32.914Z,102080.78
2023-04-27T19:52:00.644Z,102085.31
2023-04-27T19:54:27.639Z,102085.59
2023-04-27T19:56:55.028Z,102074.09
2023-04-27T19:59:22.385Z,102083.44
2023-04-27T20:01:49.636Z,102085.56
2023-04-27T20:04:18.676Z,102088.78
2023-04-27T20:06:46.548Z,102076.22
2023-04-27T20:09:13.388Z,102075.66
2023-04-27T20:11:40.407Z,102066.03
2023-04-27T20:14:07.246Z,102075.38
2023-04-27T20:16:34.062Z,102081.78
2023-04-27T20:19:00.890Z,102076.16
2023-04-27T20:21:28.229Z,102077.47
2023-04-27T20:23:55.094Z,102074.28
2023-04-27T20:26:22.674Z,102069.16
2023-04-27T20:28:49.509Z,102063.56
2023-04-27T20:31:16.685Z,102064.91
2023-04-27T20:33:43.507Z,102070.22
2023-04-27T20:36:17.204Z,102070.22
2023-04-27T20:38:45.616Z,102068.59
2023-04-27T20:41:15.360Z,102059.47
2023-04-27T20:43:42.229Z,102065.63
2023-04-27T20:46:11.269Z,102061.34
2023-04-27T20:48:38.536Z,102058.94
2023-04-27T20:51:05.936Z,102053.03
2023-04-27T20:53:32.827Z,102048.22
2023-04-27T20:55:59.646Z,102050.09
2023-04-27T20:58:26.489Z,102045.00
2023-04-27T21:00:53.336Z,102041.00
2023-04-27T21:03:20.243Z,102037.22
2023-04-27T21:05:49.329Z,102044.19
2023-04-27T21:08:17.099Z,102040.94
2023-04-27T21:10:44.587Z,102044.19
2023-04-27T21:13:11.696Z,102045.25
2023-04-27T21:15:38.677Z,102041.69
2023-04-27T21:18:09.452Z,102034.78
2023-04-27T21:20:40.394Z,102033.16
2023-04-27T21:23:07.313Z,102036.31
2023-04-27T21:25:35.096Z,102036.06
2023-04-27T21:28:01.954Z,102032.31
2023-04-27T21:30:30.650Z,102026.97
2023-04-27T21:32:57.568Z,102036.84
2023-04-27T21:35:24.426Z,102036.28
2023-04-27T21:37:51.259Z,102027.47
2023-04-27T21:40:18.182Z,102023.19
2023-04-27T21:42:45.094Z,102013.56
2023-04-27T21:45:12.139Z,102007.41
2023-04-27T21:47:38.995Z,102001.00
2023-04-27T21:50:06.732Z,102002.00
2023-04-27T21:52:33.543Z,102000.38
2023-04-27T21:55:03.627Z,101992.59
2023-04-27T21:57:31.569Z,101993.38
2023-04-27T21:59:58.932Z,101984.53
2023-04-27T22:02:25.979Z,101993.09
2023-04-27T22:04:53.059Z,101985.25
2023-04-27T22:07:19.993Z,101986.31
2023-04-27T22:09:46.744Z,101995.38
2023-04-27T22:12:13.635Z,101982.53
2023-04-27T22:14:41.983Z,101984.66
2023-04-27T22:17:08.847Z,101981.72
2023-04-27T22:19:36.254Z,101977.13
2023-04-27T22:22:04.105Z,101983.25
2023-04-27T22:24:31.483Z,101985.59
2023-04-27T22:26:58.332Z,101979.47
2023-04-27T22:29:25.266Z,101985.78
2023-04-27T22:31:52.365Z,101984.13
2023-04-27T22:34:19.522Z,101972.13
2023-04-27T22:36:46.520Z,101960.63
2023-04-27T22:39:13.380Z,101960.06
2023-04-27T22:41:40.260Z,101954.47
2023-04-27T22:44:07.168Z,101957.28
2023-04-27T22:46:34.251Z,101952.47
2023-04-27T22:49:01.687Z,101954.31
2023-04-27T22:51:28.501Z,101951.34
2023-04-27T22:53:55.301Z,101956.38
2023-04-27T22:56:22.691Z,101944.41
2023-04-27T22:58:49.585Z,101948.91
2023-04-27T23:01:16.678Z,101945.44
2023-04-27T23:03:43.614Z,101940.59
2023-04-27T23:06:14.514Z,101938.19
2023-04-27T23:08:47.150Z,101934.72
2023-04-27T23:11:15.633Z,101930.22
2023-04-27T23:13:42.565Z,101932.00
2023-04-27T23:16:10.228Z,101932.25
2023-04-27T23:18:37.271Z,101926.59
2023-04-27T23:21:04.281Z,101913.81
2023-04-27T23:23:31.329Z,101910.38
2023-04-27T23:25:58.200Z,101912.78
2023-04-27T23:28:25.102Z,101918.06
2023-04-27T23:30:54.015Z,101915.88
2023-04-27T23:33:21.690Z,101913.22
2023-04-27T23:35:48.546Z,101912.47
2023-04-27T23:38:15.377Z,101907.66
2023-04-27T23:40:42.286Z,101904.69
2023-04-27T23:43:09.175Z,101896.66
2023-04-27T23:45:36.444Z,101896.41
2023-04-27T23:48:04.165Z,101902.00
2023-04-27T23:50:31.099Z,101895.81
2023-04-27T23:52:57.894Z,101895.25
2023-04-27T23:55:24.778Z,101895.00
2023-04-27T23:57:52.666Z,101887.56
